createdAt,value
2023-05-13T00:00:45.484Z,12.88
2023-05-13T00:03:12.484Z,12.79
2023-05-13T00:05:40.419Z,12.69
2023-05-13T00:08:07.456Z,12.68
2023-05-13T00:10:34.819Z,12.70
2023-05-13T00:13:01.645Z,12.55
2023-05-13T00:15:28.713Z,12.54
2023-05-13T00:17:55.295Z,12.53
2023-05-13T00:20:22.103Z,12.42
2023-05-13T00:22:48.856Z,12.53
2023-05-13T00:25:15.501Z,12.41
2023-05-13T00:27:42.014Z,12.44
2023-05-13T00:30:09.344Z,12.48
2023-05-13T00:32:35.867Z,12.28
2023-05-13T00:35:02.411Z,12.21
2023-05-13T00:37:28.902Z,12.12
2023-05-13T00:39:55.445Z,12.23
2023-05-13T00:42:21.941Z,12.04
2023-05-13T00:44:48.535Z,12.07
2023-05-13T00:47:16.842Z,12.06
2023-05-13T00:49:43.537Z,12.03
2023-05-13T00:52:10.022Z,12.03
2023-05-13T00:54:36.538Z,11.86
2023-05-13T00:57:02.986Z,11.96
2023-05-13T00:59:30.704Z,11.96
2023-05-13T01:02:12.273Z,11.98
2023-05-13T01:04:52.667Z,11.86
2023-05-13T01:07:37.952Z,11.80
2023-05-13T01:10:43.483Z,11.76
2023-05-13T01:13:13.414Z,11.75
2023-05-13T01:15:47.399Z,11.81
2023-05-13T01:18:19.709Z,11.79
2023-05-13T01:20:46.649Z,11.78
2023-05-13T01:23:13.199Z,11.69
2023-05-13T01:25:40.759Z,11.73
2023-05-13T01:28:08.579Z,11.62
2023-05-13T01:30:36.132Z,11.62
2023-05-13T01:33:03.208Z,11.66
2023-05-13T01:35:31.692Z,11.60
2023-05-13T01:37:59.323Z,11.54
2023-05-13T01:40:32.867Z,11.49
2023-05-13T01:43:00.726Z,11.37
2023-05-13T01:45:30.610Z,11.52
2023-05-13T01:47:57.181Z,11.43
2023-05-13T01:50:24.169Z,11.27
2023-05-13T01:52:50.868Z,11.28
2023-05-13T01:55:17.672Z,11.50
2023-05-13T01:57:44.182Z,11.34
2023-05-13T02:00:11.432Z,11.37
2023-05-13T02:02:37.992Z,11.38
2023-05-13T02:05:05.397Z,11.50
2023-05-13T02:07:31.930Z,11.31
2023-05-13T02:09:59.800Z,11.36
2023-05-13T02:12:26.984Z,11.29
2023-05-13T02:14:54.553Z,11.30
2023-05-13T02:17:22.761Z,11.19
2023-05-13T02:19:49.428Z,11.29
2023-05-13T02:22:16.370Z,11.49
2023-05-13T02:24:43.055Z,11.27
2023-05-13T02:27:12.502Z,11.19
2023-05-13T02:29:39.103Z,11.29
2023-05-13T02:32:06.132Z,11.26
2023-05-13T02:34:32.609Z,11.16
2023-05-13T02:36:59.044Z,11.21
2023-05-13T02:39:25.483Z,11.11
2023-05-13T02:41:51.985Z,11.01
2023-05-13T02:44:18.443Z,11.03
2023-05-13T02:46:44.929Z,11.00
2023-05-13T02:49:11.611Z,10.95
2023-05-13T02:51:38.012Z,10.88
2023-05-13T02:54:05.008Z,11.04
2023-05-13T02:56:31.526Z,10.90
2023-05-13T02:58:58.184Z,11.03
2023-05-13T03:01:26.624Z,10.93
2023-05-13T03:03:53.235Z,11.01
2023-05-13T03:06:19.687Z,10.87
2023-05-13T03:08:46.175Z,10.77
2023-05-13T03:11:12.650Z,10.71
2023-05-13T03:13:39.117Z,10.78
2023-05-13T03:16:05.712Z,10.86
2023-05-13T03:18:32.856Z,10.74
2023-05-13T03:20:59.480Z,10.69
2023-05-13T03:23:26.010Z,10.67
2023-05-13T03:25:52.487Z,10.54
2023-05-13T03:28:19.005Z,10.62
2023-05-13T03:30:45.697Z,10.70
2023-05-13T03:33:12.252Z,10.58
2023-05-13T03:35:38.807Z,10.53
2023-05-13T03:38:05.280Z,10.56
2023-05-13T03:40:31.798Z,10.40
2023-05-13T03:42:58.280Z,10.48
2023-05-13T03:45:24.702Z,10.46
2023-05-13T03:47:51.210Z,10.37
2023-05-13T03:50:17.759Z,10.43
2023-05-13T03:52:46.793Z,10.38
2023-05-13T03:55:15.008Z,10.42
2023-05-13T03:57:45.149Z,10.29
2023-05-13T04:00:12.367Z,10.39
2023-05-13T04:02:39.118Z,10.34
2023-05-13T04:05:06.371Z,10.42
2023-05-13T04:07:32.954Z,10.35
2023-05-13T04:09:59.375Z,10.46
2023-05-13T04:12:25.849Z,10.46
2023-05-13T04:14:52.323Z,10.39
2023-05-13T04:17:18.847Z,10.40
2023-05-13T04:19:45.362Z,10.41
2023-05-13T04:22:11.930Z,10.37
2023-05-13T04:24:38.687Z,10.52
2023-05-13T04:27:05.403Z,10.50
2023-05-13T04:29:31.852Z,10.48
2023-05-13T04:31:58.378Z,10.27
2023-05-13T04:34:24.850Z,10.45
2023-05-13T04:36:51.290Z,10.48
2023-05-13T04:39:17.701Z,10.38
2023-05-13T04:41:44.240Z,10.40
2023-05-13T04:44:10.908Z,10.56
2023-05-13T04:46:40.546Z,10.57
2023-05-13T04:49:07.105Z,10.64
2023-05-13T04:51:34.003Z,10.56
2023-05-13T04:54:00.803Z,10.58
2023-05-13T04:56:27.911Z,10.67
2023-05-13T04:58:54.398Z,10.64
2023-05-13T05:01:20.892Z,10.82
2023-05-13T05:03:47.447Z,10.76
2023-05-13T05:06:13.942Z,10.78
2023-05-13T05:08:40.488Z,10.81
2023-05-13T05:11:06.972Z,11.06
2023-05-13T05:13:33.531Z,10.92
2023-05-13T05:15:59.956Z,11.11
2023-05-13T05:18:26.576Z,10.92
2023-05-13T05:20:53.162Z,11.19
2023-05-13T05:23:19.622Z,11.09
2023-05-13T05:25:46.100Z,11.02
2023-05-13T05:28:12.586Z,11.27
2023-05-13T05:30:42.070Z,11.17
2023-05-13T05:33:08.880Z,11.41
2023-05-13T05:35:38.400Z,11.41
2023-05-13T05:38:05.354Z,11.33
2023-05-13T05:40:32.916Z,11.48
2023-05-13T05:42:59.487Z,11.56
2023-05-13T05:45:25.996Z,11.51
2023-05-13T05:47:54.147Z,11.73
2023-05-13T05:50:21.351Z,11.74
2023-05-13T05:52:48.088Z,11.74
2023-05-13T05:55:15.152Z,11.74
2023-05-13T05:57:41.591Z,11.91
2023-05-13T06:00:08.779Z,11.99
2023-05-13T06:02:35.361Z,12.13
2023-05-13T06:05:01.855Z,12.08
2023-05-13T06:07:28.447Z,12.29
2023-05-13T06:09:55.491Z,12.43
2023-05-13T06:12:23.225Z,12.55
2023-05-13T06:14:50.327Z,12.46
2023-05-13T06:17:16.772Z,12.55
2023-05-13T06:19:43.574Z,12.79
2023-05-13T06:22:11.266Z,12.59
2023-05-13T06:24:39.191Z,12.60
2023-05-13T06:27:05.786Z,12.85
2023-05-13T06:29:32.460Z,12.83
2023-05-13T06:31:58.954Z,12.85
2023-05-13T06:34:25.428Z,13.04
2023-05-13T06:36:51.886Z,13.40
2023-05-13T06:39:18.491Z,13.29
2023-05-13T06:41:45.066Z,13.65
2023-05-13T06:44:11.534Z,13.58
2023-05-13T06:46:38.037Z,13.69
2023-05-13T06:49:04.650Z,13.65
2023-05-13T06:51:32.951Z,13.89
2023-05-13T06:53:59.560Z,13.95
2023-05-13T06:56:26.152Z,13.78
2023-05-13T06:58:53.164Z,13.97
2023-05-13T07:01:19.971Z,13.91
2023-05-13T07:03:46.556Z,14.34
2023-05-13T07:06:13.043Z,14.29
2023-05-13T07:08:40.823Z,14.51
2023-05-13T07:11:07.383Z,14.46
2023-05-13T07:13:34.957Z,14.55
2023-05-13T07:16:02.395Z,14.44
2023-05-13T07:18:29.602Z,14.79
2023-05-13T07:20:59.019Z,15.43
2023-05-13T07:23:25.626Z,15.12
2023-05-13T07:25:52.442Z,15.36
2023-05-13T07:28:20.733Z,15.89
2023-05-13T07:30:47.307Z,16.31
2023-05-13T07:33:13.915Z,16.36
2023-05-13T07:35:40.422Z,16.80
2023-05-13T07:38:09.229Z,16.63
2023-05-13T07:40:35.801Z,16.68
2023-05-13T07:43:02.300Z,17.02
2023-05-13T07:45:29.505Z,16.45
2023-05-13T07:47:56.574Z,16.61
2023-05-13T07:50:23.243Z,16.39
2023-05-13T07:52:51.683Z,16.35
2023-05-13T07:55:18.897Z,16.50
2023-05-13T07:57:45.712Z,16.19
2023-05-13T08:00:12.559Z,16.77
2023-05-13T08:02:39.315Z,16.56
2023-05-13T08:05:06.695Z,16.64
2023-05-13T08:07:33.347Z,16.70
2023-05-13T08:09:59.829Z,16.69
2023-05-13T08:12:26.281Z,17.11
2023-05-13T08:14:52.860Z,17.66
2023-05-13T08:17:19.682Z,17.42
2023-05-13T08:19:46.373Z,17.54
2023-05-13T08:22:12.947Z,17.94
2023-05-13T08:24:43.095Z,17.71
2023-05-13T08:27:09.589Z,17.23
2023-05-13T08:29:36.150Z,17.95
2023-05-13T08:32:03.018Z,18.25
2023-05-13T08:34:29.658Z,18.70
2023-05-13T08:36:56.108Z,18.81
2023-05-13T08:39:22.748Z,18.48
2023-05-13T08:41:50.101Z,18.43
2023-05-13T08:44:18.956Z,18.30
2023-05-13T08:46:53.369Z,19.30
2023-05-13T08:49:20.663Z,19.31
2023-05-13T08:51:47.145Z,19.81
2023-05-13T08:54:16.455Z,20.96
2023-05-13T08:56:42.915Z,19.87
2023-05-13T08:59:09.476Z,20.86
2023-05-13T09:01:36.422Z,20.33
2023-05-13T09:04:08.603Z,20.88
2023-05-13T09:06:35.124Z,21.07
2023-05-13T09:09:03.136Z,20.44
2023-05-13T09:11:29.643Z,20.62
2023-05-13T09:14:00.414Z,20.27
2023-05-13T09:16:29.267Z,20.67
2023-05-13T09:18:58.931Z,21.24
2023-05-13T09:21:34.124Z,22.11
2023-05-13T09:24:18.901Z,21.77
2023-05-13T09:26:46.307Z,22.09
2023-05-13T09:29:18.571Z,23.31
2023-05-13T09:31:46.915Z,23.29
2023-05-13T09:34:13.414Z,22.48
2023-05-13T09:36:40.642Z,22.90
2023-05-13T09:39:07.254Z,23.44
2023-05-13T09:41:34.383Z,23.65
2023-05-13T09:44:04.746Z,23.36
2023-05-13T09:46:35.125Z,22.83
2023-05-13T09:49:01.754Z,22.62
2023-05-13T09:51:31.809Z,23.38
2023-05-13T09:54:06.293Z,23.20
2023-05-13T09:56:36.924Z,23.34
2023-05-13T09:59:03.792Z,24.12
2023-05-13T10:01:30.845Z,23.92
2023-05-13T10:04:01.281Z,24.01
2023-05-13T10:06:30.860Z,24.34
2023-05-13T10:09:01.364Z,23.78
2023-05-13T10:11:30.105Z,23.71
2023-05-13T10:14:20.538Z,23.78
2023-05-13T10:16:47.995Z,23.97
2023-05-13T10:19:14.900Z,23.87
2023-05-13T10:21:42.175Z,23.30
2023-05-13T10:24:09.864Z,22.25
2023-05-13T10:26:36.583Z,22.47
2023-05-13T10:29:03.563Z,21.65
2023-05-13T10:31:30.956Z,21.95
2023-05-13T10:33:58.622Z,22.02
2023-05-13T10:36:43.870Z,22.41
2023-05-13T10:39:49.428Z,22.52
2023-05-13T10:42:27.722Z,21.46
2023-05-13T10:44:58.589Z,21.38
2023-05-13T10:47:25.392Z,21.43
2023-05-13T10:49:52.919Z,21.71
2023-05-13T10:52:19.885Z,21.69
2023-05-13T10:55:01.579Z,21.92
2023-05-13T10:57:37.823Z,21.88
2023-05-13T11:00:15.707Z,22.05
2023-05-13T11:02:42.711Z,21.91
2023-05-13T11:05:09.977Z,21.16
2023-05-13T11:07:39.675Z,20.90
2023-05-13T11:10:25.612Z,20.91
2023-05-13T11:13:13.186Z,20.89
2023-05-13T11:15:52.072Z,20.73
2023-05-13T11:18:20.183Z,20.08
2023-05-13T11:20:53.064Z,20.68
2023-05-13T11:23:21.080Z,21.40
2023-05-13T11:26:09.433Z,21.67
2023-05-13T11:29:00.125Z,21.95
2023-05-13T11:31:28.676Z,21.27
2023-05-13T11:34:11.463Z,20.74
2023-05-13T11:36:40.459Z,20.75
2023-05-13T11:39:07.774Z,19.93
2023-05-13T11:41:34.400Z,20.55
2023-05-13T11:44:03.274Z,19.95
2023-05-13T11:46:30.150Z,19.43
2023-05-13T11:48:56.931Z,19.52
2023-05-13T11:51:25.443Z,19.14
2023-05-13T11:53:55.148Z,19.00
2023-05-13T11:56:26.576Z,19.08
2023-05-13T11:58:53.402Z,18.64
2023-05-13T12:01:19.890Z,18.55
2023-05-13T12:03:46.570Z,18.61
2023-05-13T12:06:13.601Z,18.71
2023-05-13T12:08:45.370Z,18.42
2023-05-13T12:11:15.280Z,18.64
2023-05-13T12:13:42.049Z,18.92
2023-05-13T12:16:08.802Z,18.78
2023-05-13T12:18:37.224Z,18.64
2023-05-13T12:21:14.599Z,18.54
2023-05-13T12:23:41.161Z,18.78
2023-05-13T12:26:08.153Z,18.53
2023-05-13T12:28:34.688Z,18.08
2023-05-13T12:31:03.437Z,18.24
2023-05-13T12:33:31.237Z,18.55
2023-05-13T12:36:21.634Z,18.56
2023-05-13T12:39:02.626Z,18.59
2023-05-13T12:41:31.978Z,18.70
2023-05-13T12:44:14.507Z,19.22
2023-05-13T12:46:58.312Z,19.01
2023-05-13T12:49:27.150Z,18.38
2023-05-13T12:51:53.604Z,18.28
2023-05-13T12:54:20.110Z,18.03
2023-05-13T12:56:46.645Z,18.29
2023-05-13T12:59:14.385Z,18.40
2023-05-13T13:01:42.206Z,18.68
2023-05-13T13:04:08.909Z,19.00
2023-05-13T13:06:35.770Z,19.13
2023-05-13T13:09:02.312Z,19.37
2023-05-13T13:11:29.885Z,19.24
2023-05-13T13:13:56.419Z,18.91
2023-05-13T13:16:23.191Z,18.88
2023-05-13T13:18:53.193Z,18.89
2023-05-13T13:21:21.400Z,18.92
2023-05-13T13:23:47.819Z,18.99
2023-05-13T13:26:14.319Z,18.72
2023-05-13T13:28:40.789Z,18.83
2023-05-13T13:31:07.906Z,18.91
2023-05-13T13:33:34.436Z,18.81
2023-05-13T13:36:00.942Z,18.97
2023-05-13T13:38:27.426Z,18.64
2023-05-13T13:40:53.813Z,18.44
2023-05-13T13:43:21.560Z,18.67
2023-05-13T13:45:48.146Z,18.64
2023-05-13T13:48:14.693Z,18.63
2023-05-13T14:01:44.286Z,18.60
2023-05-13T14:04:15.678Z,18.81
2023-05-13T14:06:42.638Z,18.87
2023-05-13T14:09:10.416Z,19.19
2023-05-13T14:11:37.021Z,19.07
2023-05-13T14:14:03.484Z,18.82
2023-05-13T14:16:30.573Z,18.93
2023-05-13T14:18:57.396Z,18.79
2023-05-13T14:21:24.024Z,18.99
2023-05-13T14:23:50.664Z,18.87
2023-05-13T14:26:39.130Z,18.71
2023-05-13T14:29:06.667Z,18.59
2023-05-13T14:31:33.269Z,18.33
2023-05-13T14:33:59.785Z,18.45
2023-05-13T14:36:26.795Z,18.39
2023-05-13T14:38:54.072Z,18.41
2023-05-13T14:41:22.597Z,18.26
2023-05-13T14:43:49.446Z,18.32
2023-05-13T14:46:16.045Z,18.25
2023-05-13T14:48:42.600Z,18.64
2023-05-13T14:51:11.160Z,18.54
2023-05-13T14:53:38.433Z,18.65
2023-05-13T14:56:06.405Z,18.54
2023-05-13T14:58:32.959Z,18.46
2023-05-13T15:00:59.463Z,18.75
2023-05-13T15:03:26.334Z,18.64
2023-05-13T15:05:54.329Z,18.38
2023-05-13T15:08:21.000Z,18.40
2023-05-13T15:10:47.538Z,18.54
2023-05-13T15:13:13.986Z,18.70
2023-05-13T15:15:40.448Z,18.96
2023-05-13T15:18:06.985Z,19.02
2023-05-13T15:20:33.515Z,18.86
2023-05-13T15:23:00.001Z,19.03
2023-05-13T15:25:26.496Z,19.20
2023-05-13T15:27:54.200Z,19.23
2023-05-13T15:30:20.882Z,18.88
2023-05-13T15:32:47.543Z,19.22
2023-05-13T15:35:15.768Z,19.40
2023-05-13T15:37:42.660Z,19.54
2023-05-13T15:40:09.484Z,19.04
2023-05-13T15:42:36.020Z,19.20
2023-05-13T15:45:02.597Z,19.14
2023-05-13T15:47:29.271Z,19.19
2023-05-13T15:49:55.857Z,19.29
2023-05-13T15:52:22.292Z,19.38
2023-05-13T15:54:48.753Z,19.29
2023-05-13T15:57:15.579Z,19.48
2023-05-13T15:59:42.177Z,19.42
2023-05-13T16:02:08.748Z,19.45
2023-05-13T16:04:35.556Z,19.02
2023-05-13T16:07:02.119Z,18.51
2023-05-13T16:09:28.563Z,17.97
2023-05-13T16:11:55.354Z,17.87
2023-05-13T16:14:21.835Z,17.59
2023-05-13T16:16:48.396Z,17.51
2023-05-13T16:19:14.996Z,17.97
2023-05-13T16:21:42.277Z,17.39
2023-05-13T16:24:08.728Z,17.44
2023-05-13T16:26:35.194Z,17.18
2023-05-13T16:29:01.921Z,17.16
2023-05-13T16:31:28.484Z,16.95
2023-05-13T16:33:55.094Z,17.24
2023-05-13T16:36:21.707Z,17.31
2023-05-13T16:38:48.431Z,17.22
2023-05-13T16:41:15.022Z,17.18
2023-05-13T16:43:41.415Z,17.48
2023-05-13T16:46:07.873Z,17.62
2023-05-13T16:48:34.630Z,17.54
2023-05-13T16:51:01.062Z,17.56
2023-05-13T16:53:27.533Z,17.47
2023-05-13T16:55:54.083Z,17.32
2023-05-13T16:58:20.612Z,17.29
2023-05-13T17:00:47.123Z,17.17
2023-05-13T17:03:13.756Z,17.29
2023-05-13T17:05:40.570Z,17.34
2023-05-13T17:08:07.035Z,17.36
2023-05-13T17:10:33.533Z,16.92
2023-05-13T17:12:59.960Z,17.35
2023-05-13T17:15:26.418Z,17.50
2023-05-13T17:17:52.888Z,16.86
2023-05-13T17:20:20.566Z,16.81
2023-05-13T17:22:47.500Z,16.77
2023-05-13T17:25:14.895Z,16.72
2023-05-13T17:27:41.454Z,16.53
2023-05-13T17:30:08.702Z,16.58
2023-05-13T17:32:35.764Z,16.55
2023-05-13T17:35:04.075Z,16.47
2023-05-13T17:37:30.633Z,16.74
2023-05-13T17:40:00.597Z,16.79
2023-05-13T17:42:28.899Z,17.04
2023-05-13T17:44:55.480Z,16.97
2023-05-13T17:47:22.049Z,16.94
2023-05-13T17:49:48.482Z,16.79
2023-05-13T17:52:15.068Z,16.80
2023-05-13T17:54:41.570Z,16.61
2023-05-13T17:57:09.918Z,16.39
2023-05-13T17:59:36.667Z,16.31
2023-05-13T18:02:03.249Z,16.38
2023-05-13T18:04:29.769Z,16.23
2023-05-13T18:06:56.193Z,16.10
2023-05-13T18:09:22.640Z,15.65
2023-05-13T18:11:49.065Z,16.24
2023-05-13T18:14:15.669Z,16.14
2023-05-13T18:16:42.174Z,16.03
2023-05-13T18:19:08.747Z,16.06
2023-05-13T18:21:35.281Z,15.89
2023-05-13T18:24:01.794Z,15.85
2023-05-13T18:26:28.203Z,15.73
2023-05-13T18:28:54.665Z,15.82
2023-05-13T18:31:21.178Z,15.66
2023-05-13T18:33:47.736Z,15.82
2023-05-13T18:36:14.591Z,15.81
2023-05-13T18:38:41.156Z,15.88
2023-05-13T18:41:07.687Z,15.76
2023-05-13T18:43:34.180Z,15.80
2023-05-13T18:46:00.797Z,15.81
2023-05-13T18:48:27.358Z,15.70
2023-05-13T18:50:53.819Z,15.45
2023-05-13T18:53:20.258Z,15.11
2023-05-13T18:55:46.686Z,15.13
2023-05-13T18:58:13.793Z,15.36
2023-05-13T19:00:40.324Z,15.44
2023-05-13T19:03:06.873Z,15.33
2023-05-13T19:05:33.539Z,15.28
2023-05-13T19:08:00.645Z,15.33
2023-05-13T19:10:27.194Z,15.29
2023-05-13T19:12:53.678Z,15.46
2023-05-13T19:15:21.380Z,15.46
2023-05-13T19:17:48.129Z,15.48
2023-05-13T19:20:16.445Z,15.52
2023-05-13T19:22:42.969Z,15.45
2023-05-13T19:25:09.713Z,15.40
2023-05-13T19:27:37.247Z,15.44
2023-05-13T19:30:04.316Z,15.51
2023-05-13T19:32:30.857Z,15.47
2023-05-13T19:34:57.269Z,15.47
2023-05-13T19:37:24.342Z,15.45
2023-05-13T19:39:50.809Z,15.43
2023-05-13T19:42:17.343Z,15.44
2023-05-13T19:44:44.117Z,15.41
2023-05-13T19:47:10.568Z,15.39
2023-05-13T19:49:37.044Z,15.41
2023-05-13T19:52:03.629Z,15.38
2023-05-13T19:54:30.074Z,15.31
2023-05-13T19:56:56.612Z,15.31
2023-05-13T19:59:23.089Z,15.40
2023-05-13T20:01:49.592Z,15.30
2023-05-13T20:04:16.807Z,15.22
2023-05-13T20:06:43.270Z,15.25
2023-05-13T20:09:10.500Z,15.23
2023-05-13T20:11:36.943Z,15.02
2023-05-13T20:14:04.155Z,14.95
2023-05-13T20:16:30.728Z,14.90
2023-05-13T20:18:57.396Z,14.79
2023-05-13T20:21:23.913Z,14.65
2023-05-13T20:23:50.335Z,14.42
2023-05-13T20:26:17.211Z,14.61
2023-05-13T20:28:45.634Z,14.63
2023-05-13T20:31:12.257Z,14.65
2023-05-13T20:33:38.723Z,14.74
2023-05-13T20:36:06.507Z,14.70
2023-05-13T20:38:33.054Z,14.65
2023-05-13T20:40:59.855Z,14.69
2023-05-13T20:43:26.448Z,14.66
2023-05-13T20:45:53.056Z,14.69
2023-05-13T20:48:19.675Z,14.63
2023-05-13T20:50:46.231Z,14.47
2023-05-13T20:53:12.731Z,14.28
2023-05-13T20:55:39.211Z,14.03
2023-05-13T20:58:05.804Z,14.05
2023-05-13T21:00:32.280Z,13.96
2023-05-13T21:02:59.469Z,13.79
2023-05-13T21:05:26.203Z,13.80
2023-05-13T21:07:52.678Z,13.81
2023-05-13T21:10:19.203Z,13.82
2023-05-13T21:12:47.653Z,13.80
2023-05-13T21:15:14.694Z,13.89
2023-05-13T21:17:41.235Z,13.97
2023-05-13T21:20:08.639Z,14.10
2023-05-13T21:22:35.114Z,14.13
2023-05-13T21:25:01.609Z,14.13
2023-05-13T21:27:28.056Z,14.16
2023-05-13T21:29:54.539Z,14.01
2023-05-13T21:32:21.032Z,14.03
2023-05-13T21:34:47.481Z,14.06
2023-05-13T21:37:14.395Z,13.98
2023-05-13T21:39:41.375Z,13.95
2023-05-13T21:42:08.046Z,13.81
2023-05-13T21:44:34.953Z,13.91
2023-05-13T21:47:01.458Z,13.71
2023-05-13T21:49:27.903Z,13.85
2023-05-13T21:51:54.394Z,13.80
2023-05-13T21:54:20.946Z,13.68
2023-05-13T21:56:47.465Z,13.66
2023-05-13T21:59:13.939Z,13.58
2023-05-13T22:01:40.488Z,13.53
2023-05-13T22:04:07.014Z,13.50
2023-05-13T22:06:33.569Z,13.25
2023-05-13T22:09:01.404Z,13.31
2023-05-13T22:11:27.936Z,13.38
2023-05-13T22:13:54.331Z,13.31
2023-05-13T22:16:20.902Z,13.26
2023-05-13T22:18:48.851Z,13.13
2023-05-13T22:21:15.560Z,13.09
2023-05-13T22:23:42.066Z,13.17
2023-05-13T22:26:08.548Z,13.06
2023-05-13T22:28:34.996Z,13.10
2023-05-13T22:31:01.836Z,13.11
2023-05-13T22:33:28.364Z,13.18
2023-05-13T22:35:54.847Z,13.03
2023-05-13T22:38:21.348Z,13.19
2023-05-13T22:40:47.868Z,13.30
2023-05-13T22:43:14.335Z,13.38
2023-05-13T22:45:40.896Z,13.40
2023-05-13T22:48:08.160Z,13.41
2023-05-13T22:50:34.814Z,13.31
2023-05-13T22:53:01.272Z,13.17
2023-05-13T22:55:27.716Z,12.98
2023-05-13T22:57:54.162Z,13.14
2023-05-13T23:00:20.856Z,13.15
2023-05-13T23:02:47.536Z,13.20
2023-05-13T23:05:14.004Z,13.20
2023-05-13T23:07:40.471Z,13.19
2023-05-13T23:10:07.410Z,13.22
2023-05-13T23:12:33.845Z,13.23
2023-05-13T23:15:00.421Z,13.27
2023-05-13T23:17:26.929Z,13.26
2023-05-13T23:19:53.460Z,13.32
2023-05-13T23:22:19.886Z,13.33
2023-05-13T23:24:46.333Z,13.33
2023-05-13T23:27:12.848Z,13.31
2023-05-13T23:29:39.333Z,13.30
2023-05-13T23:32:06.953Z,13.23
2023-05-13T23:34:33.824Z,13.26
2023-05-13T23:37:00.329Z,13.24
2023-05-13T23:39:26.778Z,13.22
2023-05-13T23:41:53.221Z,13.13
2023-05-13T23:44:19.652Z,13.06
2023-05-13T23:46:46.119Z,13.11
2023-05-13T23:49:12.521Z,13.17
2023-05-13T23:51:39.183Z,13.20
2023-05-13T23:54:05.726Z,13.19
2023-05-13T23:56:32.249Z,13.09
2023-05-13T23:58:58.770Z,12.97
